sensor_id;sensor_type;location;lat;lon;timestamp;temperature;humidity
11079;DHT22;5592;49.234;7.268;2023-09-19T00:00:58;15.10;99.90
11079;DHT22;5592;49.234;7.268;2023-09-19T00:03:24;15.20;99.90
11079;DHT22;5592;49.234;7.268;2023-09-19T00:05:50;15.20;99.90
11079;DHT22;5592;49.234;7.268;2023-09-19T00:08:16;15.30;99.90
11079;DHT22;5592;49.234;7.268;2023-09-19T00:10:42;15.30;99.90
11079;DHT22;5592;49.234;7.268;2023-09-19T00:13:09;15.30;99.90
11079;DHT22;5592;49.234;7.268;2023-09-19T00:15:40;15.40;99.90
11079;DHT22;5592;49.234;7.268;2023-09-19T00:18:07;15.40;99.90
11079;DHT22;5592;49.234;7.268;2023-09-19T00:20:35;15.40;99.90
11079;DHT22;5592;49.234;7.268;2023-09-19T00:23:01;15.50;99.90
11079;DHT22;5592;49.234;7.268;2023-09-19T00:25:35;15.50;99.90
11079;DHT22;5592;49.234;7.268;2023-09-19T00:28:04;15.50;99.90
11079;DHT22;5592;49.234;7.268;2023-09-19T00:30:30;15.60;99.90
11079;DHT22;5592;49.234;7.268;2023-09-19T00:32:55;15.60;99.90
11079;DHT22;5592;49.234;7.268;2023-09-19T00:35:21;15.70;99.90
11079;DHT22;5592;49.234;7.268;2023-09-19T00:37:51;15.70;99.90
11079;DHT22;5592;49.234;7.268;2023-09-19T00:40:16;15.70;99.90
11079;DHT22;5592;49.234;7.268;2023-09-19T00:42:43;15.70;99.90
11079;DHT22;5592;49.234;7.268;2023-09-19T00:45:10;15.70;99.90
11079;DHT22;5592;49.234;7.268;2023-09-19T00:47:42;15.70;99.90
11079;DHT22;5592;49.234;7.268;2023-09-19T00:50:08;15.70;99.90
11079;DHT22;5592;49.234;7.268;2023-09-19T00:52:36;15.70;99.90
11079;DHT22;5592;49.234;7.268;2023-09-19T00:55:08;15.60;99.90
11079;DHT22;5592;49.234;7.268;2023-09-19T00:57:35;15.50;99.90
11079;DHT22;5592;49.234;7.268;2023-09-19T01:00:02;15.50;99.90
11079;DHT22;5592;49.234;7.268;2023-09-19T01:02:33;15.40;99.90
11079;DHT22;5592;49.234;7.268;2023-09-19T01:04:59;15.40;99.90
11079;DHT22;5592;49.234;7.268;2023-09-19T01:07:26;15.30;99.90
11079;DHT22;5592;49.234;7.268;2023-09-19T01:09:55;15.10;99.90
11079;DHT22;5592;49.234;7.268;2023-09-19T01:12:49;15.10;99.90
11079;DHT22;5592;49.234;7.268;2023-09-19T01:18:27;15.00;99.90
11079;DHT22;5592;49.234;7.268;2023-09-19T01:26:39;14.90;99.90
11079;DHT22;5592;49.234;7.268;2023-09-19T01:31:45;14.60;99.90
11079;DHT22;5592;49.234;7.268;2023-09-19T01:34:12;14.60;99.90
11079;DHT22;5592;49.234;7.268;2023-09-19T01:36:38;14.60;99.90
11079;DHT22;5592;49.234;7.268;2023-09-19T01:39:09;14.60;99.90
11079;DHT22;5592;49.234;7.268;2023-09-19T01:41:51;14.50;99.90
11079;DHT22;5592;49.234;7.268;2023-09-19T01:44:29;14.50;99.90
11079;DHT22;5592;49.234;7.268;2023-09-19T01:47:02;14.50;99.90
11079;DHT22;5592;49.234;7.268;2023-09-19T01:49:56;14.50;99.90
11079;DHT22;5592;49.234;7.268;2023-09-19T01:52:26;14.50;99.90
11079;DHT22;5592;49.234;7.268;2023-09-19T01:54:56;14.50;99.90
11079;DHT22;5592;49.234;7.268;2023-09-19T01:57:29;14.50;99.90
11079;DHT22;5592;49.234;7.268;2023-09-19T02:00:02;14.50;99.90
11079;DHT22;5592;49.234;7.268;2023-09-19T02:02:37;14.50;99.90
11079;DHT22;5592;49.234;7.268;2023-09-19T02:05:04;14.50;99.90
11079;DHT22;5592;49.234;7.268;2023-09-19T02:07:30;14.50;99.90
11079;DHT22;5592;49.234;7.268;2023-09-19T02:10:00;14.60;99.90
11079;DHT22;5592;49.234;7.268;2023-09-19T02:12:27;14.50;99.90
11079;DHT22;5592;49.234;7.268;2023-09-19T02:14:52;14.60;99.90
11079;DHT22;5592;49.234;7.268;2023-09-19T02:17:21;14.50;99.90
11079;DHT22;5592;49.234;7.268;2023-09-19T02:19:46;14.40;99.90
11079;DHT22;5592;49.234;7.268;2023-09-19T02:22:12;14.50;99.90
11079;DHT22;5592;49.234;7.268;2023-09-19T02:24:37;14.40;99.90
11079;DHT22;5592;49.234;7.268;2023-09-19T02:27:04;14.40;99.90
11079;DHT22;5592;49.234;7.268;2023-09-19T02:29:30;14.40;99.90
11079;DHT22;5592;49.234;7.268;2023-09-19T02:31:56;14.40;99.90
11079;DHT22;5592;49.234;7.268;2023-09-19T02:34:22;14.30;99.90
11079;DHT22;5592;49.234;7.268;2023-09-19T02:36:48;14.30;99.90
11079;DHT22;5592;49.234;7.268;2023-09-19T02:39:13;14.30;99.90
11079;DHT22;5592;49.234;7.268;2023-09-19T02:41:39;14.20;99.90
11079;DHT22;5592;49.234;7.268;2023-09-19T02:44:07;14.20;99.90
11079;DHT22;5592;49.234;7.268;2023-09-19T02:46:33;14.10;99.90
11079;DHT22;5592;49.234;7.268;2023-09-19T02:48:59;14.10;99.90
11079;DHT22;5592;49.234;7.268;2023-09-19T02:51:24;14.00;99.90
11079;DHT22;5592;49.234;7.268;2023-09-19T02:53:50;14.00;99.90
11079;DHT22;5592;49.234;7.268;2023-09-19T02:56:20;13.90;99.90
11079;DHT22;5592;49.234;7.268;2023-09-19T02:58:45;13.90;99.90
11079;DHT22;5592;49.234;7.268;2023-09-19T03:01:11;13.90;99.90
11079;DHT22;5592;49.234;7.268;2023-09-19T03:03:44;13.90;99.90
11079;DHT22;5592;49.234;7.268;2023-09-19T03:06:10;13.90;99.90
11079;DHT22;5592;49.234;7.268;2023-09-19T03:08:39;13.80;99.90
11079;DHT22;5592;49.234;7.268;2023-09-19T03:11:16;13.80;99.90
11079;DHT22;5592;49.234;7.268;2023-09-19T03:13:44;13.80;99.90
11079;DHT22;5592;49.234;7.268;2023-09-19T03:16:10;13.80;99.90
11079;DHT22;5592;49.234;7.268;2023-09-19T03:18:36;13.70;99.90
11079;DHT22;5592;49.234;7.268;2023-09-19T03:21:01;13.70;99.90
11079;DHT22;5592;49.234;7.268;2023-09-19T03:23:27;13.60;99.90
11079;DHT22;5592;49.234;7.268;2023-09-19T03:25:54;13.60;99.90
11079;DHT22;5592;49.234;7.268;2023-09-19T03:28:20;13.50;99.90
11079;DHT22;5592;49.234;7.268;2023-09-19T03:31:00;13.50;99.90
11079;DHT22;5592;49.234;7.268;2023-09-19T03:33:26;13.40;99.90
11079;DHT22;5592;49.234;7.268;2023-09-19T03:35:53;13.40;99.90
11079;DHT22;5592;49.234;7.268;2023-09-19T03:38:19;13.30;99.90
11079;DHT22;5592;49.234;7.268;2023-09-19T03:40:45;13.30;99.90
11079;DHT22;5592;49.234;7.268;2023-09-19T03:43:10;13.20;99.90
11079;DHT22;5592;49.234;7.268;2023-09-19T03:45:36;13.20;99.90
11079;DHT22;5592;49.234;7.268;2023-09-19T03:48:10;13.10;99.90
11079;DHT22;5592;49.234;7.268;2023-09-19T03:50:36;13.10;99.90
11079;DHT22;5592;49.234;7.268;2023-09-19T03:53:02;13.10;99.90
11079;DHT22;5592;49.234;7.268;2023-09-19T03:55:28;13.00;99.90
11079;DHT22;5592;49.234;7.268;2023-09-19T03:57:55;12.90;99.90
11079;DHT22;5592;49.234;7.268;2023-09-19T04:00:20;12.90;99.90
11079;DHT22;5592;49.234;7.268;2023-09-19T04:02:48;12.90;99.90
11079;DHT22;5592;49.234;7.268;2023-09-19T04:05:14;12.80;99.90
11079;DHT22;5592;49.234;7.268;2023-09-19T04:07:40;12.80;99.90
11079;DHT22;5592;49.234;7.268;2023-09-19T04:10:06;12.70;99.90
11079;DHT22;5592;49.234;7.268;2023-09-19T04:12:34;12.70;99.90
11079;DHT22;5592;49.234;7.268;2023-09-19T04:14:59;12.70;99.90
11079;DHT22;5592;49.234;7.268;2023-09-19T04:17:25;12.70;99.90
11079;DHT22;5592;49.234;7.268;2023-09-19T04:19:51;12.60;99.90
11079;DHT22;5592;49.234;7.268;2023-09-19T04:22:16;12.60;99.90
11079;DHT22;5592;49.234;7.268;2023-09-19T04:24:42;12.50;99.90
11079;DHT22;5592;49.234;7.268;2023-09-19T04:27:08;12.60;99.90
11079;DHT22;5592;49.234;7.268;2023-09-19T04:29:35;12.60;99.90
11079;DHT22;5592;49.234;7.268;2023-09-19T04:32:00;12.70;99.90
11079;DHT22;5592;49.234;7.268;2023-09-19T04:34:26;12.80;99.90
11079;DHT22;5592;49.234;7.268;2023-09-19T04:36:52;12.90;99.90
11079;DHT22;5592;49.234;7.268;2023-09-19T04:39:18;13.00;99.90
11079;DHT22;5592;49.234;7.268;2023-09-19T04:41:43;13.10;99.90
11079;DHT22;5592;49.234;7.268;2023-09-19T04:44:10;13.10;99.90
11079;DHT22;5592;49.234;7.268;2023-09-19T04:46:35;13.10;99.90
11079;DHT22;5592;49.234;7.268;2023-09-19T04:49:01;13.20;99.90
11079;DHT22;5592;49.234;7.268;2023-09-19T04:51:28;13.20;99.90
11079;DHT22;5592;49.234;7.268;2023-09-19T04:53:58;13.20;99.90
11079;DHT22;5592;49.234;7.268;2023-09-19T04:56:23;13.20;99.90
11079;DHT22;5592;49.234;7.268;2023-09-19T04:58:49;13.20;99.90
11079;DHT22;5592;49.234;7.268;2023-09-19T05:01:15;13.20;99.90
11079;DHT22;5592;49.234;7.268;2023-09-19T05:03:41;13.20;99.90
11079;DHT22;5592;49.234;7.268;2023-09-19T05:06:07;13.20;99.90
11079;DHT22;5592;49.234;7.268;2023-09-19T05:08:33;13.20;99.90
11079;DHT22;5592;49.234;7.268;2023-09-19T05:11:01;13.20;99.90
11079;DHT22;5592;49.234;7.268;2023-09-19T05:13:27;13.20;99.90
11079;DHT22;5592;49.234;7.268;2023-09-19T05:15:53;13.20;99.90
11079;DHT22;5592;49.234;7.268;2023-09-19T05:18:18;13.10;99.90
11079;DHT22;5592;49.234;7.268;2023-09-19T05:20:44;13.20;99.90
11079;DHT22;5592;49.234;7.268;2023-09-19T05:23:09;13.30;99.90
11079;DHT22;5592;49.234;7.268;2023-09-19T05:25:38;13.30;99.90
11079;DHT22;5592;49.234;7.268;2023-09-19T05:28:10;13.30;99.90
11079;DHT22;5592;49.234;7.268;2023-09-19T05:30:37;13.40;99.90
11079;DHT22;5592;49.234;7.268;2023-09-19T05:33:04;13.40;99.90
11079;DHT22;5592;49.234;7.268;2023-09-19T05:35:30;13.40;99.90
11079;DHT22;5592;49.234;7.268;2023-09-19T05:37:56;13.50;99.90
11079;DHT22;5592;49.234;7.268;2023-09-19T05:40:24;13.50;99.90
11079;DHT22;5592;49.234;7.268;2023-09-19T05:42:51;13.60;99.90
11079;DHT22;5592;49.234;7.268;2023-09-19T05:45:17;13.70;99.90
11079;DHT22;5592;49.234;7.268;2023-09-19T05:47:52;13.70;99.90
11079;DHT22;5592;49.234;7.268;2023-09-19T05:50:22;13.70;99.90
11079;DHT22;5592;49.234;7.268;2023-09-19T05:52:52;13.80;99.90
11079;DHT22;5592;49.234;7.268;2023-09-19T05:57:55;13.90;99.90
11079;DHT22;5592;49.234;7.268;2023-09-19T06:00:23;14.00;99.90
11079;DHT22;5592;49.234;7.268;2023-09-19T06:02:56;14.10;99.90
11079;DHT22;5592;49.234;7.268;2023-09-19T06:05:25;14.10;99.90
11079;DHT22;5592;49.234;7.268;2023-09-19T06:07:58;14.10;99.90
11079;DHT22;5592;49.234;7.268;2023-09-19T06:10:34;14.20;99.90
11079;DHT22;5592;49.234;7.268;2023-09-19T06:13:04;14.30;99.90
11079;DHT22;5592;49.234;7.268;2023-09-19T06:15:32;14.30;99.90
11079;DHT22;5592;49.234;7.268;2023-09-19T06:18:00;14.40;99.90
11079;DHT22;5592;49.234;7.268;2023-09-19T06:20:34;14.50;99.90
11079;DHT22;5592;49.234;7.268;2023-09-19T06:23:24;14.60;99.90
11079;DHT22;5592;49.234;7.268;2023-09-19T06:25:55;14.80;99.90
11079;DHT22;5592;49.234;7.268;2023-09-19T06:28:25;14.90;99.90
11079;DHT22;5592;49.234;7.268;2023-09-19T06:31:03;14.90;99.90
11079;DHT22;5592;49.234;7.268;2023-09-19T06:33:35;15.00;99.90
11079;DHT22;5592;49.234;7.268;2023-09-19T06:36:08;15.20;99.90
11079;DHT22;5592;49.234;7.268;2023-09-19T06:38:38;15.20;99.90
11079;DHT22;5592;49.234;7.268;2023-09-19T06:41:12;15.30;99.90
11079;DHT22;5592;49.234;7.268;2023-09-19T06:43:54;15.50;99.90
11079;DHT22;5592;49.234;7.268;2023-09-19T06:46:24;15.60;99.90
11079;DHT22;5592;49.234;7.268;2023-09-19T06:48:50;15.70;99.90
11079;DHT22;5592;49.234;7.268;2023-09-19T06:51:18;15.80;99.90
11079;DHT22;5592;49.234;7.268;2023-09-19T06:53:43;15.80;99.90
11079;DHT22;5592;49.234;7.268;2023-09-19T06:56:09;15.70;99.90
11079;DHT22;5592;49.234;7.268;2023-09-19T06:58:38;15.60;99.90
11079;DHT22;5592;49.234;7.268;2023-09-19T07:01:09;15.80;99.90
11079;DHT22;5592;49.234;7.268;2023-09-19T07:03:41;16.00;99.90
11079;DHT22;5592;49.234;7.268;2023-09-19T07:08:44;16.10;99.90
11079;DHT22;5592;49.234;7.268;2023-09-19T07:11:12;16.10;99.90
11079;DHT22;5592;49.234;7.268;2023-09-19T07:13:44;16.10;99.90
11079;DHT22;5592;49.234;7.268;2023-09-19T07:16:14;16.30;99.90
11079;DHT22;5592;49.234;7.268;2023-09-19T07:18:55;16.60;99.90
11079;DHT22;5592;49.234;7.268;2023-09-19T07:21:29;16.90;99.90
11079;DHT22;5592;49.234;7.268;2023-09-19T07:24:17;17.20;99.90
11079;DHT22;5592;49.234;7.268;2023-09-19T07:26:48;18.20;99.90
11079;DHT22;5592;49.234;7.268;2023-09-19T07:29:14;19.20;99.90
11079;DHT22;5592;49.234;7.268;2023-09-19T07:31:41;20.00;99.90
11079;DHT22;5592;49.234;7.268;2023-09-19T07:34:08;20.40;99.90
11079;DHT22;5592;49.234;7.268;2023-09-19T07:36:39;20.80;99.90
11079;DHT22;5592;49.234;7.268;2023-09-19T07:39:07;21.70;99.90
11079;DHT22;5592;49.234;7.268;2023-09-19T07:41:34;21.60;99.90
11079;DHT22;5592;49.234;7.268;2023-09-19T07:44:02;21.30;99.90
11079;DHT22;5592;49.234;7.268;2023-09-19T07:46:28;22.10;99.90
11079;DHT22;5592;49.234;7.268;2023-09-19T07:49:02;22.70;99.90
11079;DHT22;5592;49.234;7.268;2023-09-19T07:51:29;23.50;99.90
11079;DHT22;5592;49.234;7.268;2023-09-19T07:53:59;24.00;99.90
11079;DHT22;5592;49.234;7.268;2023-09-19T07:56:26;24.90;99.90
11079;DHT22;5592;49.234;7.268;2023-09-19T07:58:54;25.70;99.90
11079;DHT22;5592;49.234;7.268;2023-09-19T08:01:19;26.20;99.90
11079;DHT22;5592;49.234;7.268;2023-09-19T08:03:47;26.90;99.90
11079;DHT22;5592;49.234;7.268;2023-09-19T08:06:18;27.30;99.90
11079;DHT22;5592;49.234;7.268;2023-09-19T08:08:46;27.70;99.90
11079;DHT22;5592;49.234;7.268;2023-09-19T08:11:12;27.50;99.90
11079;DHT22;5592;49.234;7.268;2023-09-19T08:13:38;27.30;99.90
11079;DHT22;5592;49.234;7.268;2023-09-19T08:16:12;27.80;99.90
11079;DHT22;5592;49.234;7.268;2023-09-19T08:18:41;28.10;99.90
11079;DHT22;5592;49.234;7.268;2023-09-19T08:21:11;28.20;99.90
11079;DHT22;5592;49.234;7.268;2023-09-19T08:23:37;27.10;99.90
11079;DHT22;5592;49.234;7.268;2023-09-19T08:26:04;26.50;99.90
11079;DHT22;5592;49.234;7.268;2023-09-19T08:28:35;26.30;99.90
11079;DHT22;5592;49.234;7.268;2023-09-19T08:31:04;25.70;99.90
11079;DHT22;5592;49.234;7.268;2023-09-19T08:33:34;25.20;99.90
11079;DHT22;5592;49.234;7.268;2023-09-19T08:36:02;25.20;99.90
11079;DHT22;5592;49.234;7.268;2023-09-19T08:38:31;25.80;99.90
11079;DHT22;5592;49.234;7.268;2023-09-19T08:41:08;26.50;99.90
11079;DHT22;5592;49.234;7.268;2023-09-19T08:43:36;26.80;99.90
11079;DHT22;5592;49.234;7.268;2023-09-19T08:46:18;27.10;99.90
11079;DHT22;5592;49.234;7.268;2023-09-19T08:48:49;27.50;99.90
11079;DHT22;5592;49.234;7.268;2023-09-19T08:51:42;27.30;99.90
11079;DHT22;5592;49.234;7.268;2023-09-19T08:54:19;26.30;99.90
11079;DHT22;5592;49.234;7.268;2023-09-19T08:56:47;26.60;99.90
11079;DHT22;5592;49.234;7.268;2023-09-19T08:59:18;26.30;99.90
11079;DHT22;5592;49.234;7.268;2023-09-19T09:01:54;26.60;99.90
11079;DHT22;5592;49.234;7.268;2023-09-19T09:04:22;26.50;99.90
11079;DHT22;5592;49.234;7.268;2023-09-19T09:06:50;26.80;99.90
11079;DHT22;5592;49.234;7.268;2023-09-19T09:09:19;27.10;99.90
11079;DHT22;5592;49.234;7.268;2023-09-19T09:11:48;26.00;99.90
11079;DHT22;5592;49.234;7.268;2023-09-19T09:14:23;24.80;99.90
11079;DHT22;5592;49.234;7.268;2023-09-19T09:16:51;24.50;99.90
11079;DHT22;5592;49.234;7.268;2023-09-19T09:19:17;23.30;99.90
11079;DHT22;5592;49.234;7.268;2023-09-19T09:21:51;23.10;99.90
11079;DHT22;5592;49.234;7.268;2023-09-19T09:24:29;24.10;99.90
11079;DHT22;5592;49.234;7.268;2023-09-19T09:27:02;24.90;99.90
11079;DHT22;5592;49.234;7.268;2023-09-19T09:29:48;25.60;99.90
11079;DHT22;5592;49.234;7.268;2023-09-19T09:32:17;25.60;99.90
11079;DHT22;5592;49.234;7.268;2023-09-19T09:34:49;25.70;99.90
11079;DHT22;5592;49.234;7.268;2023-09-19T09:37:17;26.00;99.90
11079;DHT22;5592;49.234;7.268;2023-09-19T09:39:54;26.10;99.90
11079;DHT22;5592;49.234;7.268;2023-09-19T09:42:35;24.90;99.90
11079;DHT22;5592;49.234;7.268;2023-09-19T09:48:05;23.70;99.90
11079;DHT22;5592;49.234;7.268;2023-09-19T09:51:01;23.90;99.90
11079;DHT22;5592;49.234;7.268;2023-09-19T09:53:33;23.00;99.90
11079;DHT22;5592;49.234;7.268;2023-09-19T09:56:03;22.70;99.90
11079;DHT22;5592;49.234;7.268;2023-09-19T09:58:52;23.30;99.90
11079;DHT22;5592;49.234;7.268;2023-09-19T10:01:21;23.20;99.90
11079;DHT22;5592;49.234;7.268;2023-09-19T10:03:57;22.60;99.90
11079;DHT22;5592;49.234;7.268;2023-09-19T10:06:23;23.50;99.90
11079;DHT22;5592;49.234;7.268;2023-09-19T10:09:08;24.00;99.90
11079;DHT22;5592;49.234;7.268;2023-09-19T10:11:44;24.80;99.90
11079;DHT22;5592;49.234;7.268;2023-09-19T10:14:25;25.60;99.90
11079;DHT22;5592;49.234;7.268;2023-09-19T10:16:57;25.40;99.90
11079;DHT22;5592;49.234;7.268;2023-09-19T10:19:37;24.80;99.90
11079;DHT22;5592;49.234;7.268;2023-09-19T10:22:04;25.10;99.90
11079;DHT22;5592;49.234;7.268;2023-09-19T10:24:33;24.90;99.90
11079;DHT22;5592;49.234;7.268;2023-09-19T10:26:59;24.60;99.90
11079;DHT22;5592;49.234;7.268;2023-09-19T10:29:31;24.40;99.90
11079;DHT22;5592;49.234;7.268;2023-09-19T10:32:00;24.40;99.90
11079;DHT22;5592;49.234;7.268;2023-09-19T10:34:29;23.50;99.90
11079;DHT22;5592;49.234;7.268;2023-09-19T10:36:59;23.50;99.90
11079;DHT22;5592;49.234;7.268;2023-09-19T10:39:32;23.50;99.90
11079;DHT22;5592;49.234;7.268;2023-09-19T10:42:02;23.80;99.90
11079;DHT22;5592;49.234;7.268;2023-09-19T10:44:32;24.20;99.90
11079;DHT22;5592;49.234;7.268;2023-09-19T10:46:58;24.60;99.90
11079;DHT22;5592;49.234;7.268;2023-09-19T10:49:25;24.50;99.90
11079;DHT22;5592;49.234;7.268;2023-09-19T10:51:54;24.30;99.90
11079;DHT22;5592;49.234;7.268;2023-09-19T10:54:26;23.70;99.90
11079;DHT22;5592;49.234;7.268;2023-09-19T10:56:54;23.00;99.90
11079;DHT22;5592;49.234;7.268;2023-09-19T10:59:21;22.90;99.90
11079;DHT22;5592;49.234;7.268;2023-09-19T11:01:52;23.10;99.90
11079;DHT22;5592;49.234;7.268;2023-09-19T11:04:30;22.70;99.90
11079;DHT22;5592;49.234;7.268;2023-09-19T11:07:22;22.90;99.90
11079;DHT22;5592;49.234;7.268;2023-09-19T11:09:53;22.80;99.90
11079;DHT22;5592;49.234;7.268;2023-09-19T11:15:10;22.20;99.90
11079;DHT22;5592;49.234;7.268;2023-09-19T11:17:40;21.90;99.90
11079;DHT22;5592;49.234;7.268;2023-09-19T11:30:43;22.10;99.90
11079;DHT22;5592;49.234;7.268;2023-09-19T11:36:06;22.90;99.90
11079;DHT22;5592;49.234;7.268;2023-09-19T11:43:52;22.90;99.90
11079;DHT22;5592;49.234;7.268;2023-09-19T11:46:20;22.00;99.90
11079;DHT22;5592;49.234;7.268;2023-09-19T11:48:49;21.70;99.90
11079;DHT22;5592;49.234;7.268;2023-09-19T11:51:17;21.60;99.90
11079;DHT22;5592;49.234;7.268;2023-09-19T11:53:58;21.50;99.90
11079;DHT22;5592;49.234;7.268;2023-09-19T11:56:28;21.70;99.90
11079;DHT22;5592;49.234;7.268;2023-09-19T11:58:55;22.30;99.90
11079;DHT22;5592;49.234;7.268;2023-09-19T12:01:24;22.70;99.90
11079;DHT22;5592;49.234;7.268;2023-09-19T12:03:53;22.70;99.90
11079;DHT22;5592;49.234;7.268;2023-09-19T12:06:20;22.40;99.90
11079;DHT22;5592;49.234;7.268;2023-09-19T12:08:47;21.80;99.90
11079;DHT22;5592;49.234;7.268;2023-09-19T12:11:15;21.60;99.90
11079;DHT22;5592;49.234;7.268;2023-09-19T12:13:46;21.70;99.90
11079;DHT22;5592;49.234;7.268;2023-09-19T12:16:14;21.80;99.90
11079;DHT22;5592;49.234;7.268;2023-09-19T12:18:42;22.00;99.90
11079;DHT22;5592;49.234;7.268;2023-09-19T12:21:27;22.10;99.90
11079;DHT22;5592;49.234;7.268;2023-09-19T12:26:39;22.10;99.90
11079;DHT22;5592;49.234;7.268;2023-09-19T12:29:16;22.10;99.90
11079;DHT22;5592;49.234;7.268;2023-09-19T12:31:51;22.20;99.90
11079;DHT22;5592;49.234;7.268;2023-09-19T12:34:22;22.20;99.90
11079;DHT22;5592;49.234;7.268;2023-09-19T12:36:48;22.10;99.90
11079;DHT22;5592;49.234;7.268;2023-09-19T12:39:24;22.20;99.90
11079;DHT22;5592;49.234;7.268;2023-09-19T12:41:55;21.80;99.90
11079;DHT22;5592;49.234;7.268;2023-09-19T12:44:22;21.50;99.90
11079;DHT22;5592;49.234;7.268;2023-09-19T12:46:50;21.40;99.90
11079;DHT22;5592;49.234;7.268;2023-09-19T12:49:17;21.50;99.90
11079;DHT22;5592;49.234;7.268;2023-09-19T12:51:43;21.80;99.90
11079;DHT22;5592;49.234;7.268;2023-09-19T12:54:09;21.90;99.90
11079;DHT22;5592;49.234;7.268;2023-09-19T12:56:43;22.10;99.90
11079;DHT22;5592;49.234;7.268;2023-09-19T12:59:14;22.40;99.90
11079;DHT22;5592;49.234;7.268;2023-09-19T13:01:42;22.30;99.90
11079;DHT22;5592;49.234;7.268;2023-09-19T13:04:20;22.30;99.90
11079;DHT22;5592;49.234;7.268;2023-09-19T13:06:53;22.50;99.90
11079;DHT22;5592;49.234;7.268;2023-09-19T13:09:22;22.50;99.90
11079;DHT22;5592;49.234;7.268;2023-09-19T13:11:50;22.30;99.90
11079;DHT22;5592;49.234;7.268;2023-09-19T13:14:20;22.20;99.90
11079;DHT22;5592;49.234;7.268;2023-09-19T13:17:02;22.20;99.90
11079;DHT22;5592;49.234;7.268;2023-09-19T13:22:36;22.30;99.90
11079;DHT22;5592;49.234;7.268;2023-09-19T13:24:51;22.40;99.90
11079;DHT22;5592;49.234;7.268;2023-09-19T13:27:17;22.60;99.90
11079;DHT22;5592;49.234;7.268;2023-09-19T13:29:43;22.40;99.90
11079;DHT22;5592;49.234;7.268;2023-09-19T13:32:09;22.40;99.90
11079;DHT22;5592;49.234;7.268;2023-09-19T13:34:36;22.30;99.90
11079;DHT22;5592;49.234;7.268;2023-09-19T13:37:03;22.30;99.90
11079;DHT22;5592;49.234;7.268;2023-09-19T13:39:30;21.80;99.90
11079;DHT22;5592;49.234;7.268;2023-09-19T13:41:55;21.70;99.90
11079;DHT22;5592;49.234;7.268;2023-09-19T13:44:21;21.50;99.90
11079;DHT22;5592;49.234;7.268;2023-09-19T13:46:47;21.50;99.90
11079;DHT22;5592;49.234;7.268;2023-09-19T13:49:12;21.40;99.90
11079;DHT22;5592;49.234;7.268;2023-09-19T13:51:38;21.30;99.90
11079;DHT22;5592;49.234;7.268;2023-09-19T13:54:04;21.40;99.90
11079;DHT22;5592;49.234;7.268;2023-09-19T13:56:30;21.60;99.90
11079;DHT22;5592;49.234;7.268;2023-09-19T13:58:57;21.70;99.90
11079;DHT22;5592;49.234;7.268;2023-09-19T14:01:22;21.80;99.90
11079;DHT22;5592;49.234;7.268;2023-09-19T14:03:48;21.80;99.90
11079;DHT22;5592;49.234;7.268;2023-09-19T14:06:16;21.90;99.90
11079;DHT22;5592;49.234;7.268;2023-09-19T14:08:45;21.90;99.90
11079;DHT22;5592;49.234;7.268;2023-09-19T14:11:13;22.00;99.90
11079;DHT22;5592;49.234;7.268;2023-09-19T14:13:39;21.80;99.90
11079;DHT22;5592;49.234;7.268;2023-09-19T14:16:06;21.70;99.90
11079;DHT22;5592;49.234;7.268;2023-09-19T14:18:34;21.40;99.90
11079;DHT22;5592;49.234;7.268;2023-09-19T14:21:06;21.50;99.90
11079;DHT22;5592;49.234;7.268;2023-09-19T14:23:36;21.60;99.90
11079;DHT22;5592;49.234;7.268;2023-09-19T14:26:01;21.50;99.90
11079;DHT22;5592;49.234;7.268;2023-09-19T14:28:27;21.60;99.90
11079;DHT22;5592;49.234;7.268;2023-09-19T14:30:55;21.50;99.90
11079;DHT22;5592;49.234;7.268;2023-09-19T14:33:21;21.50;99.90
11079;DHT22;5592;49.234;7.268;2023-09-19T14:35:46;21.40;99.90
11079;DHT22;5592;49.234;7.268;2023-09-19T14:38:12;21.40;99.90
11079;DHT22;5592;49.234;7.268;2023-09-19T14:40:37;21.30;99.90
11079;DHT22;5592;49.234;7.268;2023-09-19T14:43:04;21.20;99.90
11079;DHT22;5592;49.234;7.268;2023-09-19T14:45:30;21.20;99.90
11079;DHT22;5592;49.234;7.268;2023-09-19T14:47:56;21.20;99.90
11079;DHT22;5592;49.234;7.268;2023-09-19T14:50:25;21.30;99.90
11079;DHT22;5592;49.234;7.268;2023-09-19T14:52:51;21.20;99.90
11079;DHT22;5592;49.234;7.268;2023-09-19T14:55:19;21.10;99.90
11079;DHT22;5592;49.234;7.268;2023-09-19T14:57:49;21.10;99.90
11079;DHT22;5592;49.234;7.268;2023-09-19T15:00:16;21.10;99.90
11079;DHT22;5592;49.234;7.268;2023-09-19T15:02:42;21.10;99.90
11079;DHT22;5592;49.234;7.268;2023-09-19T15:05:10;21.10;99.90
11079;DHT22;5592;49.234;7.268;2023-09-19T15:07:36;21.10;99.90
11079;DHT22;5592;49.234;7.268;2023-09-19T15:10:04;21.00;99.90
11079;DHT22;5592;49.234;7.268;2023-09-19T15:12:32;21.00;99.90
11079;DHT22;5592;49.234;7.268;2023-09-19T15:14:58;21.00;99.90
11079;DHT22;5592;49.234;7.268;2023-09-19T15:17:24;20.90;99.90
11079;DHT22;5592;49.234;7.268;2023-09-19T15:19:50;20.90;99.90
11079;DHT22;5592;49.234;7.268;2023-09-19T15:22:16;20.90;99.90
11079;DHT22;5592;49.234;7.268;2023-09-19T15:24:42;20.80;99.90
11079;DHT22;5592;49.234;7.268;2023-09-19T15:27:07;20.80;99.90
11079;DHT22;5592;49.234;7.268;2023-09-19T15:29:33;20.70;99.90
11079;DHT22;5592;49.234;7.268;2023-09-19T15:31:59;20.70;99.90
11079;DHT22;5592;49.234;7.268;2023-09-19T15:34:28;20.60;99.90
11079;DHT22;5592;49.234;7.268;2023-09-19T15:36:54;20.50;99.90
11079;DHT22;5592;49.234;7.268;2023-09-19T15:39:20;20.40;99.90
11079;DHT22;5592;49.234;7.268;2023-09-19T15:41:48;20.40;99.90
11079;DHT22;5592;49.234;7.268;2023-09-19T15:44:17;20.30;99.90
11079;DHT22;5592;49.234;7.268;2023-09-19T15:46:44;20.40;99.90
11079;DHT22;5592;49.234;7.268;2023-09-19T15:49:10;20.30;99.90
11079;DHT22;5592;49.234;7.268;2023-09-19T15:51:37;20.30;99.90
11079;DHT22;5592;49.234;7.268;2023-09-19T15:54:11;20.20;99.90
11079;DHT22;5592;49.234;7.268;2023-09-19T15:56:44;20.10;99.90
11079;DHT22;5592;49.234;7.268;2023-09-19T15:59:10;20.10;99.90
11079;DHT22;5592;49.234;7.268;2023-09-19T16:01:39;20.10;99.90
11079;DHT22;5592;49.234;7.268;2023-09-19T16:04:08;20.10;99.90
11079;DHT22;5592;49.234;7.268;2023-09-19T16:06:35;20.00;99.90
11079;DHT22;5592;49.234;7.268;2023-09-19T16:09:02;19.90;99.90
11079;DHT22;5592;49.234;7.268;2023-09-19T16:11:31;19.90;99.90
11079;DHT22;5592;49.234;7.268;2023-09-19T16:13:57;19.70;99.90
11079;DHT22;5592;49.234;7.268;2023-09-19T16:16:23;19.70;99.90
11079;DHT22;5592;49.234;7.268;2023-09-19T16:18:51;19.70;99.90
11079;DHT22;5592;49.234;7.268;2023-09-19T16:21:18;19.70;99.90
11079;DHT22;5592;49.234;7.268;2023-09-19T16:23:48;19.60;99.90
11079;DHT22;5592;49.234;7.268;2023-09-19T16:26:19;19.50;99.90
11079;DHT22;5592;49.234;7.268;2023-09-19T16:28:49;19.50;99.90
11079;DHT22;5592;49.234;7.268;2023-09-19T16:31:15;19.50;99.90
11079;DHT22;5592;49.234;7.268;2023-09-19T16:33:44;19.40;99.90
11079;DHT22;5592;49.234;7.268;2023-09-19T16:36:11;19.40;99.90
11079;DHT22;5592;49.234;7.268;2023-09-19T16:38:38;19.30;99.90
11079;DHT22;5592;49.234;7.268;2023-09-19T16:41:05;19.30;99.90
11079;DHT22;5592;49.234;7.268;2023-09-19T16:43:31;19.20;99.90